Time;durP1;ratioP1;P1;durP2;ratioP2;P2;SDS_P1;SDS_P2;PMS_P1;PMS_P2;Temp;Humidity;BMP_temperature;BMP_pressure;BME280_temperature;BME280_humidity;BME280_pressure;Samples;Min_cycle;Max_cycle;Signal;HPM_P1;HPM_P2
2022/01/05 00:01:07;;;;;;;5.82;4.75;;;5.90;99.90;;;;;;4954691;29;20047;-74
2022/01/05 00:03:35;;;;;;;4.90;4.47;;;5.90;99.90;;;;;;4955416;29;20413;-74
2022/01/05 00:06:02;;;;;;;4.47;4.15;;;5.90;99.90;;;;;;4937318;29;20143;-74
2022/01/05 00:08:28;;;;;;;4.60;4.15;;;5.80;99.90;;;;;;4955164;29;20039;-74
2022/01/05 00:10:55;;;;;;;3.63;3.35;;;5.90;99.90;;;;;;4954374;29;20041;-74
2022/01/05 00:13:21;;;;;;;4.13;3.83;;;5.90;99.90;;;;;;4955212;29;20062;-74
2022/01/05 00:15:48;;;;;;;4.35;3.95;;;5.80;99.90;;;;;;4954344;29;20051;-74
2022/01/05 00:18:14;;;;;;;4.47;4.07;;;5.90;99.90;;;;;;4955042;29;20496;-74
2022/01/05 00:20:41;;;;;;;4.45;4.07;;;5.80;99.90;;;;;;4954998;28;20036;-73
2022/01/05 00:23:07;;;;;;;5.05;4.63;;;5.80;99.90;;;;;;4954231;29;20039;-74
2022/01/05 00:25:33;;;;;;;5.18;4.78;;;5.90;99.90;;;;;;4954929;28;20043;-74
2022/01/05 00:27:59;;;;;;;5.45;5.05;;;5.90;99.90;;;;;;4936912;29;20043;-74
2022/01/05 00:30:26;;;;;;;6.25;5.65;;;5.90;99.90;;;;;;4955073;28;20043;-74
2022/01/05 00:32:52;;;;;;;5.95;5.15;;;5.90;99.90;;;;;;4954108;28;20461;-74
2022/01/05 00:35:18;;;;;;;6.07;5.63;;;5.90;99.90;;;;;;4953783;28;20046;-74
2022/01/05 00:37:44;;;;;;;6.78;6.18;;;5.90;99.90;;;;;;4954234;28;20388;-76
2022/01/05 00:40:11;;;;;;;6.15;5.65;;;5.80;99.90;;;;;;4937270;29;20491;-74
2022/01/05 00:42:37;;;;;;;6.38;5.85;;;5.90;99.90;;;;;;4954706;29;20036;-73
2022/01/05 00:45:04;;;;;;;6.90;6.20;;;5.90;99.90;;;;;;4954209;29;20128;-74
2022/01/05 00:47:31;;;;;;;7.63;6.82;;;5.80;99.90;;;;;;4957028;29;20042;-74
2022/01/05 00:49:57;;;;;;;8.77;6.82;;;5.80;99.90;;;;;;4956161;29;20047;-74
2022/01/05 00:52:23;;;;;;;14.15;10.90;;;5.80;99.90;;;;;;4955038;29;20051;-73
2022/01/05 00:54:51;;;;;;;34.95;27.05;;;5.90;99.90;;;;;;4953757;28;20495;-74
2022/01/05 00:57:17;;;;;;;19.20;16.30;;;5.90;99.90;;;;;;4954514;28;20054;-73
2022/01/05 00:59:43;;;;;;;9.88;8.95;;;5.80;99.90;;;;;;4954582;29;20035;-73
2022/01/05 01:02:09;;;;;;;9.52;8.68;;;5.80;99.90;;;;;;4953815;29;20039;-73
2022/01/05 01:04:36;;;;;;;9.88;8.93;;;5.80;99.90;;;;;;4954109;29;20042;-73
2022/01/05 01:07:02;;;;;;;10.35;8.90;;;5.80;99.90;;;;;;4952593;28;20055;-74
2022/01/05 01:09:28;;;;;;;10.40;9.50;;;5.90;99.90;;;;;;4954427;29;20028;-73
2022/01/05 01:11:54;;;;;;;10.38;9.48;;;5.80;99.90;;;;;;4953275;29;20042;-74
2022/01/05 01:14:21;;;;;;;9.98;8.90;;;5.80;99.90;;;;;;4936571;29;20050;-74
2022/01/05 01:16:47;;;;;;;8.27;7.63;;;5.80;99.90;;;;;;4954473;28;20392;-75
2022/01/05 01:19:13;;;;;;;7.15;6.60;;;5.80;99.90;;;;;;4954993;29;20054;-73
2022/01/05 01:21:39;;;;;;;7.60;7.00;;;5.80;99.90;;;;;;4954436;29;20039;-73
2022/01/05 01:24:05;;;;;;;7.50;6.80;;;5.90;99.90;;;;;;4954201;28;20031;-73
2022/01/05 01:26:33;;;;;;;6.93;6.35;;;5.80;99.90;;;;;;4955821;29;20039;-74
2022/01/05 01:29:00;;;;;;;6.10;5.60;;;5.80;99.90;;;;;;4953281;29;20050;-73
2022/01/05 01:31:28;;;;;;;10.40;5.47;;;5.80;99.90;;;;;;4953811;28;20039;-73
2022/01/05 01:33:55;;;;;;;5.30;4.80;;;5.80;99.90;;;;;;4935746;29;20043;-73
2022/01/05 01:36:21;;;;;;;4.00;3.58;;;5.80;99.90;;;;;;4953960;29;20492;-73
2022/01/05 01:38:47;;;;;;;4.22;3.85;;;5.80;99.90;;;;;;4953559;29;20043;-76
2022/01/05 01:41:13;;;;;;;3.50;3.20;;;5.80;99.90;;;;;;4953332;29;20042;-73
2022/01/05 01:43:40;;;;;;;5.20;3.55;;;5.90;99.90;;;;;;4953999;28;20035;-73
2022/01/05 01:46:08;;;;;;;3.45;3.15;;;5.80;99.90;;;;;;4955598;28;20054;-73
2022/01/05 01:48:34;;;;;;;3.25;2.90;;;5.80;99.90;;;;;;4957839;28;20051;-73
2022/01/05 01:51:01;;;;;;;3.10;2.80;;;5.80;99.90;;;;;;4936396;29;20047;-73
2022/01/05 01:53:27;;;;;;;3.88;3.47;;;5.70;99.90;;;;;;4938892;29;20482;-73
2022/01/05 01:55:57;;;;;;;2.42;2.22;;;5.80;99.90;;;;;;4937831;29;20039;-74
2022/01/05 01:58:26;;;;;;;2.70;2.25;;;5.70;99.90;;;;;;4938661;29;20144;-73
2022/01/05 02:00:52;;;;;;;3.20;2.72;;;5.70;99.90;;;;;;4937596;29;20032;-75
2022/01/05 02:03:18;;;;;;;2.92;1.90;;;5.80;99.90;;;;;;4938095;29;20031;-73
2022/01/05 02:05:44;;;;;;;3.67;2.22;;;5.80;99.90;;;;;;4938063;29;20040;-73
2022/01/05 02:08:10;;;;;;;2.13;1.67;;;5.70;99.90;;;;;;4937366;29;20714;-73
2022/01/05 02:10:36;;;;;;;3.08;1.98;;;5.80;99.90;;;;;;4938534;29;20031;-73
2022/01/05 02:13:03;;;;;;;1.55;1.40;;;5.80;99.90;;;;;;4937219;29;20039;-74
2022/01/05 02:15:30;;;;;;;1.73;1.55;;;5.90;99.90;;;;;;4937941;29;20042;-73
2022/01/05 02:20:29;;;;;;;1.88;1.70;;;5.80;99.90;;;;;;4938287;29;20035;-73
2022/01/05 02:22:56;;;;;;;1.30;1.20;;;5.80;99.90;;;;;;4937241;29;20058;-74
2022/01/05 02:25:23;;;;;;;0.98;0.90;;;5.90;99.90;;;;;;4920731;29;20047;-74
2022/01/05 02:27:51;;;;;;;3.25;1.30;;;5.80;99.90;;;;;;4936446;29;20129;-75
2022/01/05 02:30:21;;;;;;;1.20;1.10;;;5.90;99.90;;;;;;4937445;29;20027;-73
2022/01/05 02:32:49;;;;;;;1.58;1.10;;;5.90;99.90;;;;;;4937479;29;20032;-73
2022/01/05 02:35:15;;;;;;;9.48;1.20;;;6.00;99.90;;;;;;4936954;29;20042;-74
2022/01/05 02:37:47;;;;;;;1.73;1.13;;;5.90;99.90;;;;;;4937760;29;20043;-73
2022/01/05 02:40:15;;;;;;;2.17;1.52;;;5.90;99.90;;;;;;4937200;29;20233;-73
2022/01/05 02:42:42;;;;;;;1.40;1.08;;;5.90;99.90;;;;;;4937872;29;20028;-74
2022/01/05 02:45:10;;;;;;;1.17;0.98;;;5.90;99.90;;;;;;4937004;29;20040;-74
2022/01/05 02:47:38;;;;;;;4.32;1.20;;;5.80;99.90;;;;;;4937230;29;20031;-73
2022/01/05 02:50:06;;;;;;;3.28;1.50;;;5.80;99.90;;;;;;4936905;29;20054;-73
2022/01/05 02:52:33;;;;;;;4.25;1.10;;;5.80;99.90;;;;;;4954864;29;20062;-73
2022/01/05 02:55:00;;;;;;;2.25;0.90;;;5.90;99.90;;;;;;4955905;29;20035;-74
2022/01/05 02:57:27;;;;;;;2.10;1.30;;;5.80;99.90;;;;;;4955312;28;20031;-74
2022/01/05 02:59:53;;;;;;;1.60;1.15;;;5.90;99.90;;;;;;4956105;29;20035;-76
2022/01/05 03:02:20;;;;;;;2.15;1.35;;;5.90;99.90;;;;;;4956049;29;20031;-74
2022/01/05 03:04:46;;;;;;;1.88;1.52;;;5.90;99.90;;;;;;4956573;29;20031;-74
2022/01/05 03:07:15;;;;;;;3.28;2.20;;;5.90;99.90;;;;;;4955370;29;20035;-74
2022/01/05 03:09:41;;;;;;;5.40;3.45;;;5.80;99.90;;;;;;4956527;29;20027;-80
2022/01/05 03:12:08;;;;;;;1.30;0.60;;;6.10;99.90;;;;;;4956302;29;20121;-79
2022/01/05 03:14:34;;;;;;;1.65;0.85;;;3.90;99.90;;;;;;4946845;29;20047;-85
2022/01/05 03:17:00;;;;;;;1.25;1.10;;;2.90;99.90;;;;;;4971724;29;20030;-87
2022/01/05 03:19:26;;;;;;;1.33;1.00;;;2.50;99.90;;;;;;4963345;28;20031;-79
2022/01/05 03:21:53;;;;;;;11.13;1.63;;;2.40;99.90;;;;;;4956959;29;20038;-77
2022/01/05 03:24:19;;;;;;;2.17;1.67;;;2.40;99.90;;;;;;4957759;29;20035;-80
2022/01/05 03:26:45;;;;;;;1.88;1.50;;;2.40;99.90;;;;;;4958453;29;20050;-82
2022/01/05 03:29:11;;;;;;;1.75;1.63;;;2.40;99.90;;;;;;4957112;29;20466;-83
2022/01/05 03:31:37;;;;;;;1.70;1.60;;;2.40;99.90;;;;;;4958236;29;20031;-84
2022/01/05 03:34:05;;;;;;;2.05;1.85;;;2.50;99.90;;;;;;4957092;29;20035;-84
2022/01/05 03:36:32;;;;;;;3.35;2.33;;;2.50;99.90;;;;;;4960782;29;20035;-83
2022/01/05 03:38:58;;;;;;;2.58;1.98;;;2.50;99.90;;;;;;4956325;29;20027;-81
2022/01/05 03:41:24;;;;;;;2.33;2.13;;;2.50;99.90;;;;;;4956112;28;20035;-82
2022/01/05 03:43:51;;;;;;;10.00;3.00;;;2.60;99.90;;;;;;4955598;29;20050;-83
2022/01/05 03:46:17;;;;;;;3.10;2.90;;;2.60;99.90;;;;;;4955180;28;20619;-81
2022/01/05 03:48:43;;;;;;;3.00;2.78;;;2.70;99.90;;;;;;4956046;29;20039;-82
2022/01/05 03:51:09;;;;;;;2.83;2.47;;;2.60;99.90;;;;;;4954768;28;20481;-81
2022/01/05 03:53:36;;;;;;;3.40;2.90;;;2.60;99.90;;;;;;4956945;29;20035;-83
2022/01/05 03:56:02;;;;;;;3.03;2.83;;;2.60;99.90;;;;;;4955068;29;20050;-81
2022/01/05 03:58:28;;;;;;;3.60;3.25;;;2.70;99.90;;;;;;4938827;29;20027;-81
2022/01/05 04:00:54;;;;;;;3.35;3.08;;;2.70;99.90;;;;;;4956079;28;20035;-78
2022/01/05 04:03:21;;;;;;;4.90;3.80;;;2.70;99.90;;;;;;4956063;29;20042;-83
2022/01/05 04:05:47;;;;;;;4.47;4.10;;;2.70;99.90;;;;;;4938916;29;20047;-83
2022/01/05 04:08:14;;;;;;;4.20;3.70;;;2.80;99.90;;;;;;4955423;28;20039;-80
2022/01/05 04:10:40;;;;;;;4.57;4.10;;;2.80;99.90;;;;;;4954933;29;20047;-83
2022/01/05 04:13:06;;;;;;;4.82;4.43;;;2.80;99.90;;;;;;4954392;29;20497;-81
2022/01/05 04:15:33;;;;;;;4.90;4.47;;;2.90;99.90;;;;;;4955318;29;20054;-82
2022/01/05 04:17:59;;;;;;;3.80;3.50;;;2.80;99.90;;;;;;4954602;29;20031;-76
2022/01/05 04:20:26;;;;;;;4.25;3.92;;;2.90;99.90;;;;;;4956452;28;20041;-80
2022/01/05 04:22:52;;;;;;;4.00;3.67;;;2.80;99.90;;;;;;4976037;28;20047;-81
2022/01/05 04:25:18;;;;;;;3.90;3.60;;;2.90;99.90;;;;;;4961583;29;20030;-82
2022/01/05 04:27:44;;;;;;;3.47;3.17;;;2.90;99.90;;;;;;4958699;29;20050;-82
2022/01/05 04:30:12;;;;;;;3.88;3.20;;;2.90;99.90;;;;;;4954721;29;20046;-79
2022/01/05 04:32:39;;;;;;;3.28;2.97;;;2.90;99.90;;;;;;4955564;29;20035;-79
2022/01/05 04:35:05;;;;;;;3.95;3.15;;;2.90;99.90;;;;;;4961116;29;20043;-79
2022/01/05 04:37:32;;;;;;;3.25;2.35;;;3.00;99.90;;;;;;4957295;29;20035;-82
2022/01/05 04:39:59;;;;;;;2.50;2.05;;;2.90;99.90;;;;;;4956520;29;20035;-77
2022/01/05 04:42:26;;;;;;;2.58;2.28;;;3.00;99.90;;;;;;4955525;29;20072;-80
2022/01/05 04:44:55;;;;;;;2.47;1.88;;;2.90;99.90;;;;;;4955706;29;20058;-80
2022/01/05 04:47:22;;;;;;;3.92;2.13;;;2.90;99.90;;;;;;4954164;29;20056;-84
2022/01/05 04:49:48;;;;;;;2.05;1.63;;;2.90;99.90;;;;;;4955040;29;20050;-82
2022/01/05 04:52:14;;;;;;;2.40;1.95;;;2.90;99.90;;;;;;4953896;29;20043;-80
2022/01/05 04:54:40;;;;;;;8.43;2.50;;;2.90;99.90;;;;;;4954496;29;20038;-81
2022/01/05 04:57:07;;;;;;;4.50;2.22;;;3.00;99.90;;;;;;4953532;28;20061;-81
2022/01/05 04:59:34;;;;;;;4.60;2.00;;;2.90;99.90;;;;;;4954419;29;20038;-81
2022/01/05 05:02:01;;;;;;;6.03;2.00;;;2.90;99.90;;;;;;4954057;28;20042;-77
2022/01/05 05:04:27;;;;;;;4.93;2.35;;;2.90;99.90;;;;;;4953962;29;20040;-80
2022/01/05 05:06:53;;;;;;;8.20;2.50;;;2.90;99.90;;;;;;4954521;29;20469;-80
2022/01/05 05:09:19;;;;;;;3.58;2.63;;;3.00;99.90;;;;;;4953415;29;20606;-80
2022/01/05 05:11:46;;;;;;;14.85;2.85;;;3.00;99.90;;;;;;4954286;29;20042;-80
2022/01/05 05:14:12;;;;;;;1.98;1.65;;;3.00;99.90;;;;;;4953598;29;20477;-81
2022/01/05 05:16:39;;;;;;;2.45;2.15;;;2.90;99.90;;;;;;4954482;29;20094;-81
2022/01/05 05:19:05;;;;;;;3.45;2.10;;;3.00;99.90;;;;;;4953705;28;20035;-80
2022/01/05 05:21:31;;;;;;;2.70;1.40;;;3.00;99.90;;;;;;4957098;28;20035;-80
2022/01/05 05:23:57;;;;;;;5.70;1.88;;;2.90;99.90;;;;;;4954067;28;20035;-81
2022/01/05 05:26:23;;;;;;;2.80;1.50;;;3.00;99.90;;;;;;4936169;29;20377;-81
2022/01/05 05:28:50;;;;;;;3.80;1.35;;;3.00;99.90;;;;;;4954421;29;20035;-80
2022/01/05 05:31:16;;;;;;;1.42;0.98;;;3.00;99.90;;;;;;4953585;29;20484;-86
2022/01/05 05:33:42;;;;;;;2.05;0.98;;;3.10;99.90;;;;;;4954264;28;20035;-83
2022/01/05 05:36:08;;;;;;;1.88;1.30;;;3.00;99.90;;;;;;4954609;29;20472;-91
2022/01/05 05:38:34;;;;;;;4.75;1.52;;;3.10;99.90;;;;;;4955175;29;20040;-92
2022/01/05 05:41:01;;;;;;;3.13;1.23;;;3.10;99.90;;;;;;4965119;29;20043;-75
2022/01/05 05:43:27;;;;;;;3.25;1.10;;;3.10;99.90;;;;;;4961160;29;20039;-91
2022/01/05 05:45:53;;;;;;;2.50;0.95;;;3.10;99.90;;;;;;4937989;29;20039;-84
2022/01/05 05:48:19;;;;;;;3.30;1.05;;;3.10;99.90;;;;;;4953003;29;20031;-87
2022/01/05 05:50:46;;;;;;;4.38;1.00;;;3.10;99.90;;;;;;4954446;29;20043;-91
2022/01/05 05:53:12;;;;;;;4.00;0.70;;;3.10;99.90;;;;;;4953558;29;20042;-84
2022/01/05 05:55:38;;;;;;;7.28;1.00;;;3.20;99.90;;;;;;4954399;29;20392;-86
2022/01/05 05:58:05;;;;;;;2.72;0.73;;;3.20;99.90;;;;;;4952645;29;20059;-78
2022/01/05 06:00:31;;;;;;;2.90;0.77;;;3.20;99.90;;;;;;4953818;28;20039;-85
2022/01/05 06:02:59;;;;;;;2.05;0.93;;;3.20;99.90;;;;;;4954233;29;20058;-89
2022/01/05 06:05:25;;;;;;;1.85;0.82;;;3.20;99.90;;;;;;4936074;29;20285;-86
2022/01/05 06:07:52;;;;;;;2.17;1.00;;;3.20;99.90;;;;;;4954199;29;20102;-88
2022/01/05 06:10:18;;;;;;;4.63;0.70;;;3.10;99.90;;;;;;4938316;29;20042;-87
2022/01/05 06:12:44;;;;;;;2.35;1.08;;;3.20;99.90;;;;;;4958595;29;20039;-84
2022/01/05 06:15:11;;;;;;;1.58;1.25;;;3.20;99.90;;;;;;4953428;29;20035;-85
2022/01/05 06:17:37;;;;;;;4.70;1.35;;;3.20;99.90;;;;;;4937032;29;20039;-90
2022/01/05 06:20:05;;;;;;;2.15;1.15;;;3.20;99.90;;;;;;4953622;29;20031;-78
2022/01/05 06:22:32;;;;;;;3.08;1.33;;;3.10;99.90;;;;;;4953791;29;20047;-85
2022/01/05 06:24:58;;;;;;;2.40;1.42;;;3.20;99.90;;;;;;4954373;29;20027;-85
2022/01/05 06:27:24;;;;;;;1.58;1.27;;;3.10;99.90;;;;;;4955403;29;20043;-84
2022/01/05 06:29:51;;;;;;;1.92;1.42;;;3.10;99.90;;;;;;4958122;29;20035;-82
2022/01/05 06:32:17;;;;;;;4.13;1.55;;;3.00;99.90;;;;;;4969288;28;20408;-84
2022/01/05 06:34:43;;;;;;;2.08;1.10;;;3.10;99.90;;;;;;4979740;29;20046;-89
2022/01/05 06:37:09;;;;;;;2.75;1.15;;;3.10;99.90;;;;;;4972326;29;20035;-88
2022/01/05 06:39:36;;;;;;;4.10;1.50;;;3.10;99.90;;;;;;4966374;29;20023;-90
2022/01/05 06:42:02;;;;;;;3.40;1.58;;;3.00;99.90;;;;;;4968152;29;20027;-92
2022/01/05 06:44:28;;;;;;;3.88;1.95;;;3.00;99.90;;;;;;4966526;29;20043;-89
2022/01/05 06:46:54;;;;;;;4.10;1.63;;;2.90;99.90;;;;;;4962303;29;20047;-89
2022/01/05 06:49:23;;;;;;;2.67;1.65;;;2.90;99.90;;;;;;4958210;29;20035;-89
2022/01/05 06:51:51;;;;;;;3.28;2.03;;;2.90;99.90;;;;;;4957694;29;20384;-89
2022/01/05 06:54:17;;;;;;;3.22;2.15;;;2.90;99.90;;;;;;4957187;29;20043;-92
2022/01/05 06:56:44;;;;;;;2.63;1.80;;;2.90;99.90;;;;;;4959286;28;20035;-86
2022/01/05 06:59:10;;;;;;;3.33;1.58;;;2.90;99.90;;;;;;4958582;29;20031;-92
2022/01/05 07:01:36;;;;;;;3.10;1.45;;;2.90;99.90;;;;;;4966379;29;20023;-87
2022/01/05 07:04:03;;;;;;;5.63;2.15;;;2.70;99.90;;;;;;4981378;28;20027;-91
2022/01/05 07:06:29;;;;;;;6.30;1.83;;;2.60;99.90;;;;;;4961281;29;20062;-89
2022/01/05 07:08:55;;;;;;;1.73;1.20;;;2.50;99.90;;;;;;4957692;29;20039;-89
2022/01/05 07:11:21;;;;;;;4.53;1.42;;;2.40;99.90;;;;;;4958040;29;20027;-88
2022/01/05 07:13:47;;;;;;;4.80;1.70;;;2.40;99.90;;;;;;4944034;29;20042;-90
2022/01/05 07:16:14;;;;;;;3.35;1.67;;;2.40;99.90;;;;;;4957727;28;20079;-89
2022/01/05 07:18:41;;;;;;;3.17;1.50;;;2.30;99.90;;;;;;4971346;28;20011;-87
2022/01/05 07:21:07;;;;;;;6.82;2.03;;;2.40;99.90;;;;;;4976903;29;20032;-75
2022/01/05 07:23:34;;;;;;;3.33;1.90;;;2.40;99.90;;;;;;4963086;29;20038;-87
2022/01/05 07:26:00;;;;;;;5.80;2.25;;;2.40;99.90;;;;;;4947659;29;20377;-90
2022/01/05 07:28:26;;;;;;;4.88;1.73;;;2.40;99.90;;;;;;4956444;29;20058;-90
2022/01/05 07:30:52;;;;;;;10.25;2.42;;;2.30;99.90;;;;;;4958764;29;20038;-92
2022/01/05 07:33:19;;;;;;;11.93;2.30;;;2.20;99.90;;;;;;4958278;29;20027;-93
2022/01/05 07:35:45;;;;;;;8.18;2.90;;;2.30;99.90;;;;;;4958356;29;20457;-88
2022/01/05 07:38:11;;;;;;;4.53;1.83;;;2.20;99.90;;;;;;4956676;29;20465;-77
2022/01/05 07:40:37;;;;;;;11.73;2.75;;;2.20;99.90;;;;;;4956524;29;20380;-88
2022/01/05 07:43:06;;;;;;;7.93;2.38;;;2.20;99.90;;;;;;4956436;28;20039;-90
2022/01/05 07:45:35;;;;;;;4.00;2.25;;;2.10;99.90;;;;;;4957242;28;20035;-87
2022/01/05 07:48:03;;;;;;;4.22;2.65;;;2.10;99.90;;;;;;4957664;29;20040;-87
2022/01/05 07:50:30;;;;;;;7.95;3.33;;;2.10;99.90;;;;;;4960591;28;20023;-87
2022/01/05 07:52:57;;;;;;;4.80;2.83;;;2.20;99.90;;;;;;4963353;29;20035;-86
2022/01/05 07:55:23;;;;;;;8.70;2.92;;;2.30;99.90;;;;;;4964079;28;20035;-88
2022/01/05 07:57:50;;;;;;;7.85;2.45;;;2.40;99.90;;;;;;4979003;29;20043;-89
2022/01/05 08:00:16;;;;;;;5.70;2.17;;;2.50;99.90;;;;;;4978388;29;20031;-79
2022/01/05 08:02:42;;;;;;;16.58;2.50;;;2.50;99.90;;;;;;4976685;28;20048;-80
2022/01/05 08:05:09;;;;;;;5.30;2.00;;;2.50;99.90;;;;;;4957200;29;20046;-80
2022/01/05 08:07:35;;;;;;;7.72;2.25;;;2.60;99.90;;;;;;4956404;29;20043;-85
2022/01/05 08:10:02;;;;;;;10.68;2.50;;;2.50;99.90;;;;;;4938534;29;20035;-85
2022/01/05 08:12:29;;;;;;;3.20;1.70;;;2.50;99.90;;;;;;4955220;29;20027;-84
2022/01/05 08:14:55;;;;;;;5.07;2.13;;;2.40;99.90;;;;;;4956507;29;20058;-84
2022/01/05 08:17:21;;;;;;;7.07;2.40;;;2.40;99.50;;;;;;4955375;29;20039;-84
2022/01/05 08:19:47;;;;;;;2.78;1.90;;;2.50;99.40;;;;;;4955690;29;20035;-83
2022/01/05 08:22:14;;;;;;;5.47;2.05;;;2.50;99.90;;;;;;4955259;28;20035;-77
2022/01/05 08:24:40;;;;;;;4.50;1.98;;;2.40;99.90;;;;;;4955892;29;20380;-85
2022/01/05 08:27:06;;;;;;;9.25;2.13;;;2.50;99.80;;;;;;4938226;29;20052;-85
2022/01/05 08:29:32;;;;;;;6.82;2.30;;;2.50;99.90;;;;;;4956990;28;20027;-88
2022/01/05 08:32:02;;;;;;;5.65;2.30;;;2.50;99.90;;;;;;4957292;29;20035;-84
2022/01/05 08:34:32;;;;;;;5.70;2.22;;;2.50;98.90;;;;;;4956397;28;20035;-84
2022/01/05 08:36:59;;;;;;;8.60;1.77;;;2.50;99.10;;;;;;4959454;28;20043;-88
2022/01/05 08:39:25;;;;;;;13.38;2.15;;;2.60;97.40;;;;;;4962902;29;20480;-88
2022/01/05 08:41:52;;;;;;;3.50;2.28;;;2.70;96.60;;;;;;4939852;29;20068;-89
2022/01/05 08:44:18;;;;;;;14.07;2.75;;;2.70;98.70;;;;;;4956414;28;20039;-89
2022/01/05 08:46:44;;;;;;;8.27;2.13;;;2.80;96.30;;;;;;4959722;29;20421;-85
2022/01/05 08:49:11;;;;;;;3.67;2.42;;;2.80;97.60;;;;;;4962234;29;20043;-88
2022/01/05 08:51:38;;;;;;;6.63;2.75;;;2.90;96.70;;;;;;4961083;29;20046;-86
2022/01/05 08:54:05;;;;;;;6.85;2.90;;;2.90;97.40;;;;;;4959360;28;20031;-85
2022/01/05 08:56:32;;;;;;;6.88;2.42;;;2.90;97.90;;;;;;4957436;29;20856;-84
2022/01/05 08:58:58;;;;;;;7.47;2.75;;;2.90;96.20;;;;;;4959369;28;20050;-85
2022/01/05 09:01:25;;;;;;;6.45;2.28;;;3.00;96.40;;;;;;4962063;29;20039;-86
2022/01/05 09:03:52;;;;;;;8.35;3.53;;;3.10;94.80;;;;;;4965160;28;20039;-84
2022/01/05 09:06:22;;;;;;;16.83;3.25;;;3.20;94.00;;;;;;4941177;29;20043;-84
2022/01/05 09:08:49;;;;;;;4.68;1.95;;;3.20;94.50;;;;;;4971193;29;20041;-82
2022/01/05 09:11:15;;;;;;;3.78;1.83;;;3.20;93.30;;;;;;4959633;28;20027;-75
2022/01/05 09:13:42;;;;;;;4.13;1.67;;;3.20;92.60;;;;;;4976280;28;20027;-78
2022/01/05 09:16:09;;;;;;;3.38;1.42;;;3.30;91.60;;;;;;4975873;28;20039;-83
2022/01/05 09:18:35;;;;;;;5.47;2.58;;;3.30;91.40;;;;;;4940874;29;20023;-85
2022/01/05 09:21:02;;;;;;;10.23;1.88;;;3.30;91.90;;;;;;4935381;29;20028;-82
2022/01/05 09:23:28;;;;;;;3.83;1.65;;;3.30;90.70;;;;;;4933914;29;20450;-83
2022/01/05 09:25:54;;;;;;;5.22;1.73;;;3.20;91.00;;;;;;4916819;29;20051;-87
2022/01/05 09:28:20;;;;;;;5.60;3.05;;;3.30;90.60;;;;;;4934795;29;20378;-86
2022/01/05 09:30:47;;;;;;;5.03;1.88;;;3.30;90.50;;;;;;4934529;29;20039;-87
2022/01/05 09:33:14;;;;;;;5.90;2.42;;;3.30;89.40;;;;;;4935096;29;20381;-86
2022/01/05 09:35:41;;;;;;;8.88;1.80;;;3.40;90.70;;;;;;4937179;29;20039;-86
2022/01/05 09:38:21;;;;;;;4.78;2.13;;;3.50;91.00;;;;;;4935956;29;20042;-81
2022/01/05 09:43:48;;;;;;;4.72;2.05;;;3.50;90.00;;;;;;4934585;29;20842;-85
2022/01/05 09:46:40;;;;;;;9.45;2.70;;;3.50;91.10;;;;;;4935385;29;20035;-75
2022/01/05 09:49:11;;;;;;;6.50;2.13;;;3.50;89.80;;;;;;4916049;29;20505;-85
2022/01/05 09:51:41;;;;;;;;;;;3.60;90.70;;;;;;4914361;29;20055;-88
2022/01/05 09:54:10;;;;;;;3.75;2.65;;;3.60;90.40;;;;;;4914812;29;19918;-86
2022/01/05 09:56:37;;;;;;;8.15;2.45;;;3.70;90.70;;;;;;4916606;29;20051;-83
2022/01/05 09:59:04;;;;;;;6.32;2.78;;;3.80;90.30;;;;;;4917607;29;20037;-85
2022/01/05 10:01:31;;;;;;;5.18;2.65;;;3.80;90.50;;;;;;4917658;29;20035;-86
2022/01/05 10:03:59;;;;;;;14.35;4.72;;;3.70;90.40;;;;;;4916740;29;20039;-85
2022/01/05 10:06:25;;;;;;;8.25;3.05;;;3.70;90.50;;;;;;4917155;29;20036;-88
2022/01/05 10:08:52;;;;;;;4.13;1.90;;;3.70;90.60;;;;;;4920378;29;20055;-84
2022/01/05 10:11:23;;;;;;;5.00;2.55;;;3.60;88.90;;;;;;4928447;29;20043;-76
2022/01/05 10:13:50;;;;;;;;;;;3.50;89.30;;;;;;4946736;29;20055;-86
2022/01/05 10:16:16;;;;;;;4.63;2.60;;;3.50;89.70;;;;;;4927631;29;19919;-90
2022/01/05 10:18:44;;;;;;;3.17;2.25;;;3.50;89.10;;;;;;4922545;29;20043;-90
2022/01/05 10:21:13;;;;;;;12.20;3.30;;;3.50;88.30;;;;;;4920839;29;20466;-87
2022/01/05 10:23:51;;;;;;;7.00;3.38;;;3.60;89.50;;;;;;4921718;29;20028;-88
2022/01/05 10:26:31;;;;;;;12.57;3.33;;;3.70;90.00;;;;;;4923712;29;20035;-78
2022/01/05 10:29:05;;;;;;;7.40;4.78;;;3.80;90.20;;;;;;4926812;29;20047;-85
2022/01/05 10:31:36;;;;;;;7.32;3.33;;;3.80;90.40;;;;;;4941456;29;20032;-86
2022/01/05 10:34:18;;;;;;;13.27;4.55;;;3.90;90.40;;;;;;4931692;29;20028;-86
2022/01/05 10:36:46;;;;;;;10.88;2.83;;;3.80;89.70;;;;;;4938474;29;20036;-85
2022/01/05 10:39:13;;;;;;;10.88;2.97;;;3.80;88.10;;;;;;4941449;29;20036;-85
2022/01/05 10:41:40;;;;;;;7.32;2.78;;;3.90;88.80;;;;;;4938535;29;20036;-78
2022/01/05 10:44:19;;;;;;;6.72;2.88;;;3.90;89.00;;;;;;4937863;29;20032;-77
2022/01/05 10:46:54;;;;;;;5.72;2.63;;;3.80;85.80;;;;;;4937279;29;20039;-78
2022/01/05 10:49:31;;;;;;;7.32;3.20;;;3.80;87.70;;;;;;4937522;29;20043;-82
2022/01/05 10:52:23;;;;;;;7.13;2.63;;;4.00;85.90;;;;;;4951169;29;20062;-78
2022/01/05 10:54:50;;;;;;;6.28;3.20;;;4.20;85.20;;;;;;4940401;29;20043;-79
2022/01/05 10:57:17;;;;;;;7.32;3.85;;;4.30;87.10;;;;;;4937541;29;20042;-77
2022/01/05 10:59:46;;;;;;;6.10;2.53;;;4.30;84.50;;;;;;4936942;29;20031;-82
2022/01/05 11:02:22;;;;;;;4.93;3.03;;;4.30;84.50;;;;;;4922581;29;20366;-81
2022/01/05 11:05:15;;;;;;;9.10;3.00;;;4.30;83.90;;;;;;4942354;29;20031;-82
2022/01/05 11:07:46;;;;;;;14.45;2.60;;;4.40;83.70;;;;;;4935524;29;20051;-82
2022/01/05 11:10:14;;;;;;;;;;;4.40;84.30;;;;;;4952684;29;20389;-78
2022/01/05 11:12:46;;;;;;;17.92;3.15;;;4.50;85.00;;;;;;4938927;29;19910;-79
2022/01/05 11:15:37;;;;;;;4.15;2.50;;;4.40;83.00;;;;;;4947732;29;20039;-88
2022/01/05 11:18:15;;;;;;;7.47;3.22;;;4.50;82.80;;;;;;4950552;28;20035;-88
2022/01/05 11:20:51;;;;;;;7.28;3.63;;;4.50;83.20;;;;;;4960414;29;20104;-83
2022/01/05 11:23:19;;;;;;;9.25;3.25;;;4.60;84.50;;;;;;4937371;29;20486;-87
2022/01/05 11:25:47;;;;;;;5.70;2.90;;;4.70;81.60;;;;;;4948108;29;20492;-86
2022/01/05 11:28:15;;;;;;;9.85;2.53;;;4.70;83.50;;;;;;4946137;29;20040;-84
2022/01/05 11:30:43;;;;;;;4.53;2.58;;;4.70;79.50;;;;;;4934737;29;20046;-88
2022/01/05 11:33:10;;;;;;;7.68;3.20;;;4.70;80.00;;;;;;4970298;29;20031;-81
2022/01/05 11:35:37;;;;;;;6.80;3.17;;;4.90;79.80;;;;;;4981039;28;20039;-86
2022/01/05 11:38:05;;;;;;;6.45;1.73;;;5.00;80.70;;;;;;4981358;28;20031;-86
2022/01/05 11:40:34;;;;;;;6.18;2.25;;;5.00;79.00;;;;;;4978415;29;20027;-84
2022/01/05 11:43:07;;;;;;;7.32;2.45;;;4.90;78.40;;;;;;4977695;28;20007;-81
2022/01/05 11:45:48;;;;;;;9.40;2.63;;;4.80;79.00;;;;;;4954183;29;20039;-89
2022/01/05 11:48:22;;;;;;;9.98;2.95;;;4.90;78.90;;;;;;4944858;29;20055;-92
2022/01/05 11:50:49;;;;;;;5.72;2.70;;;4.80;77.70;;;;;;4957700;29;20051;-89
2022/01/05 11:53:31;;;;;;;7.40;2.80;;;4.80;79.60;;;;;;4950103;29;20036;-90
2022/01/05 11:56:01;;;;;;;10.63;3.25;;;4.80;78.50;;;;;;4954381;29;20046;-90
2022/01/05 11:58:29;;;;;;;4.70;2.70;;;4.70;78.60;;;;;;4956128;29;20055;-88
2022/01/05 12:01:28;;;;;;;4.68;1.95;;;4.70;78.10;;;;;;4940336;29;20040;-89
2022/01/05 12:03:57;;;;;;;5.32;1.85;;;4.80;78.00;;;;;;4912148;29;20043;-88
2022/01/05 12:06:32;;;;;;;5.80;2.38;;;4.80;76.20;;;;;;4956076;29;20069;-79
2022/01/05 12:09:00;;;;;;;7.05;3.50;;;4.80;77.70;;;;;;4950017;29;20040;-90
2022/01/05 12:11:47;;;;;;;7.13;1.83;;;4.80;77.80;;;;;;4957200;29;20038;-76
2022/01/05 12:14:22;;;;;;;4.53;2.00;;;4.90;75.70;;;;;;4965347;29;20050;-90
2022/01/05 12:17:00;;;;;;;4.93;1.90;;;4.70;75.50;;;;;;4957076;29;20465;-89
2022/01/05 12:19:36;;;;;;;4.70;2.15;;;4.60;76.20;;;;;;4956117;29;20050;-79
2022/01/05 12:22:14;;;;;;;12.93;2.92;;;4.50;77.50;;;;;;4956076;29;20035;-86
2022/01/05 12:24:53;;;;;;;8.00;2.38;;;4.50;76.60;;;;;;4955966;29;20043;-89
2022/01/05 12:27:30;;;;;;;3.95;1.83;;;4.50;75.90;;;;;;4955869;29;20027;-87
2022/01/05 12:29:56;;;;;;;10.38;2.38;;;4.40;75.90;;;;;;4939022;29;20449;-87
2022/01/05 12:32:37;;;;;;;4.03;1.50;;;4.30;75.80;;;;;;4956313;29;20042;-89
2022/01/05 12:35:15;;;;;;;3.67;1.80;;;4.30;76.00;;;;;;4938021;29;20066;-87
2022/01/05 12:37:57;;;;;;;14.50;2.88;;;4.20;76.70;;;;;;4955339;29;20039;-88
2022/01/05 12:40:28;;;;;;;10.13;1.88;;;4.30;76.20;;;;;;4956469;29;20514;-88
2022/01/05 12:43:14;;;;;;;26.85;2.90;;;4.30;75.90;;;;;;4956615;29;20034;-85
2022/01/05 12:45:50;;;;;;;4.03;1.75;;;4.20;76.10;;;;;;4955068;29;20038;-88
2022/01/05 12:48:35;;;;;;;6.20;2.08;;;4.20;76.80;;;;;;4957461;29;20051;-89
2022/01/05 12:51:22;;;;;;;7.57;2.20;;;4.20;76.40;;;;;;4956206;29;20051;-89
2022/01/05 12:53:56;;;;;;;6.38;2.33;;;4.20;77.60;;;;;;4955494;29;20031;-89
2022/01/05 12:56:24;;;;;;;4.03;1.75;;;4.10;77.20;;;;;;4957909;29;20035;-88
2022/01/05 12:58:52;;;;;;;21.35;4.68;;;4.20;75.90;;;;;;4957455;29;20123;-90
2022/01/05 13:01:23;;;;;;;3.45;1.70;;;4.20;75.30;;;;;;4956280;29;20035;-87
2022/01/05 13:03:50;;;;;;;;;;;4.20;75.90;;;;;;4960755;29;20210;-86
2022/01/05 13:06:20;;;;;;;6.68;2.25;;;4.20;76.40;;;;;;4961807;29;19917;-88
2022/01/05 13:08:52;;;;;;;5.57;2.20;;;4.20;76.40;;;;;;4960017;29;20039;-89